createdAt,value
2017-08-15T00:01:23.140Z,6.10
2017-08-15T00:03:52.597Z,3.80
2017-08-15T00:06:22.033Z,20.13
2017-08-15T00:08:51.475Z,10.87
2017-08-15T00:11:20.920Z,10.30
2017-08-15T00:13:50.400Z,5.63
2017-08-15T00:16:19.839Z,4.13
2017-08-15T00:18:49.292Z,4.20
2017-08-15T00:21:18.727Z,8.33
2017-08-15T00:23:48.168Z,4.47
2017-08-15T00:26:17.616Z,5.30
2017-08-15T00:28:47.053Z,5.27
2017-08-15T00:31:16.501Z,5.20
2017-08-15T00:33:46.031Z,5.30
2017-08-15T00:36:15.517Z,8.40
2017-08-15T00:38:44.939Z,5.50
2017-08-15T00:41:14.384Z,4.87
2017-08-15T00:43:43.833Z,4.40
2017-08-15T00:46:13.273Z,4.13
2017-08-15T00:48:42.718Z,4.73
2017-08-15T00:51:12.045Z,4.40
2017-08-15T00:53:41.521Z,4.80
2017-08-15T00:56:10.964Z,4.03
2017-08-15T00:58:40.405Z,4.77
2017-08-15T01:01:09.849Z,5.07
2017-08-15T01:03:39.116Z,5.40
2017-08-15T01:06:08.560Z,4.07
2017-08-15T01:08:37.993Z,4.83
2017-08-15T01:11:07.433Z,4.53
2017-08-15T01:13:36.872Z,5.03
2017-08-15T01:16:06.312Z,5.87
2017-08-15T01:18:35.768Z,4.27
2017-08-15T01:21:05.211Z,4.43
2017-08-15T01:23:34.673Z,6.53
2017-08-15T01:26:04.153Z,4.40
2017-08-15T01:28:33.580Z,4.30
2017-08-15T01:31:03.033Z,4.57
2017-08-15T01:33:32.760Z,4.62
2017-08-15T01:36:02.206Z,6.10
2017-08-15T01:38:31.648Z,4.60
2017-08-15T01:41:01.092Z,4.23
2017-08-15T01:43:30.532Z,4.30
2017-08-15T01:45:59.972Z,5.67
2017-08-15T01:48:29.411Z,5.33
2017-08-15T01:50:59.142Z,7.15
2017-08-15T01:53:28.575Z,6.87
2017-08-15T01:55:58.977Z,5.27
2017-08-15T01:58:28.391Z,4.70
2017-08-15T02:00:57.827Z,5.00
2017-08-15T02:03:27.109Z,4.60
2017-08-15T02:05:56.565Z,5.10
2017-08-15T02:08:26.312Z,6.72
2017-08-15T02:10:55.871Z,7.70
2017-08-15T02:13:25.288Z,4.83
2017-08-15T02:15:54.745Z,5.23
2017-08-15T02:18:24.473Z,6.65
2017-08-15T02:20:54.217Z,7.97
2017-08-15T02:23:23.949Z,4.70
2017-08-15T02:25:53.718Z,6.62
2017-08-15T02:28:23.149Z,7.10
2017-08-15T02:30:52.612Z,4.70
2017-08-15T02:33:22.052Z,4.93
2017-08-15T02:35:51.788Z,4.97
2017-08-15T02:38:21.394Z,6.70
2017-08-15T02:40:51.125Z,5.75
2017-08-15T02:43:20.849Z,4.97
2017-08-15T02:45:50.580Z,5.57
2017-08-15T02:48:20.308Z,5.25
2017-08-15T02:50:50.054Z,9.43
2017-08-15T02:53:19.778Z,5.28
2017-08-15T02:55:49.505Z,7.57
2017-08-15T02:58:19.235Z,5.40
2017-08-15T03:00:48.973Z,7.65
2017-08-15T03:03:18.701Z,7.53
2017-08-15T03:05:48.424Z,5.40
2017-08-15T03:08:18.178Z,6.18
2017-08-15T03:10:47.911Z,5.55
2017-08-15T03:13:17.699Z,6.10
2017-08-15T03:15:47.409Z,6.68
2017-08-15T03:18:17.140Z,5.18
2017-08-15T03:20:46.855Z,5.97
2017-08-15T03:23:16.590Z,5.78
2017-08-15T03:25:46.128Z,6.00
2017-08-15T03:28:15.877Z,6.82
2017-08-15T03:30:45.597Z,5.07
2017-08-15T03:33:15.353Z,5.90
2017-08-15T03:35:45.090Z,6.15
2017-08-15T03:38:14.810Z,5.65
2017-08-15T03:40:44.555Z,4.87
2017-08-15T03:43:14.271Z,5.70
2017-08-15T03:45:44.049Z,9.18
2017-08-15T03:48:13.784Z,6.37
2017-08-15T03:50:43.504Z,6.85
2017-08-15T03:53:13.237Z,6.35
2017-08-15T03:55:42.982Z,6.35
2017-08-15T03:58:12.758Z,6.72
2017-08-15T04:00:43.124Z,10.90
2017-08-15T04:03:12.843Z,6.10
2017-08-15T04:05:42.576Z,6.32
2017-08-15T04:08:12.324Z,8.60
2017-08-15T04:10:42.066Z,5.93
2017-08-15T04:13:11.797Z,5.18
2017-08-15T04:15:41.524Z,6.57
2017-08-15T04:18:11.245Z,10.07
2017-08-15T04:20:40.980Z,7.07
2017-08-15T04:23:10.716Z,6.62
2017-08-15T04:25:40.445Z,6.22
2017-08-15T04:28:10.177Z,6.95
2017-08-15T04:30:39.915Z,6.62
2017-08-15T04:33:09.656Z,6.40
2017-08-15T04:35:39.391Z,8.32
2017-08-15T04:38:09.121Z,11.10
2017-08-15T04:40:38.876Z,9.55
2017-08-15T04:43:08.649Z,6.68
2017-08-15T04:45:38.364Z,8.60
2017-08-15T04:48:08.080Z,9.32
2017-08-15T04:50:37.814Z,7.37
2017-08-15T04:53:07.532Z,8.32
2017-08-15T04:55:37.297Z,7.78
2017-08-15T04:58:06.820Z,7.45
2017-08-15T05:00:36.550Z,6.30
2017-08-15T05:03:06.290Z,9.85
2017-08-15T05:05:36.013Z,6.15
2017-08-15T05:08:05.746Z,6.10
2017-08-15T05:10:35.195Z,12.60
2017-08-15T05:13:04.916Z,6.40
2017-08-15T05:15:34.776Z,6.45
2017-08-15T05:18:04.511Z,8.35
2017-08-15T05:20:34.229Z,7.65
2017-08-15T05:23:03.677Z,6.30
2017-08-15T05:25:33.430Z,7.15
2017-08-15T05:28:02.917Z,8.87
2017-08-15T05:30:32.349Z,7.23
2017-08-15T05:33:01.802Z,8.43
2017-08-15T05:35:31.243Z,7.30
2017-08-15T05:38:00.684Z,8.00
2017-08-15T05:40:30.155Z,8.30
2017-08-15T05:42:59.588Z,7.83
2017-08-15T05:45:29.024Z,9.50
2017-08-15T05:47:58.483Z,10.97
2017-08-15T05:50:27.935Z,9.00
2017-08-15T05:52:57.363Z,11.47
2017-08-15T05:55:26.828Z,11.57
2017-08-15T05:57:56.289Z,8.77
2017-08-15T06:00:25.738Z,8.90
2017-08-15T06:02:55.021Z,8.73
2017-08-15T06:05:24.505Z,7.53
2017-08-15T06:07:53.945Z,6.37
2017-08-15T06:10:23.492Z,7.33
2017-08-15T06:12:52.923Z,9.37
2017-08-15T06:15:22.406Z,10.50
2017-08-15T06:17:51.860Z,7.27
2017-08-15T06:20:21.339Z,7.83
2017-08-15T06:22:50.773Z,9.70
2017-08-15T06:25:20.253Z,10.73
2017-08-15T06:27:49.704Z,11.20
2017-08-15T06:30:19.185Z,13.27
2017-08-15T06:32:48.627Z,13.60
2017-08-15T06:35:18.179Z,13.40
2017-08-15T06:37:47.616Z,13.80
2017-08-15T06:40:17.102Z,13.80
2017-08-15T06:42:46.553Z,14.30
2017-08-15T06:45:16.075Z,14.37
2017-08-15T06:47:45.526Z,19.87
2017-08-15T06:50:15.080Z,13.43
2017-08-15T06:52:44.529Z,16.60
2017-08-15T06:55:14.013Z,16.27
2017-08-15T06:57:43.470Z,16.80
2017-08-15T07:00:12.996Z,14.67
2017-08-15T07:02:42.445Z,18.30
2017-08-15T07:05:11.938Z,23.17
2017-08-15T07:07:41.402Z,19.50
2017-08-15T07:10:10.922Z,14.97
2017-08-15T07:12:40.357Z,18.20
2017-08-15T07:15:11.555Z,15.93
2017-08-15T07:17:41.706Z,14.93
2017-08-15T07:20:11.198Z,18.23
2017-08-15T07:22:40.660Z,16.93
2017-08-15T07:25:10.159Z,16.90
2017-08-15T07:27:39.602Z,16.80
2017-08-15T07:30:09.108Z,20.50
2017-08-15T07:32:38.555Z,20.93
2017-08-15T07:35:08.044Z,29.70
2017-08-15T07:37:37.512Z,23.27
2017-08-15T07:40:07.039Z,27.23
2017-08-15T07:42:36.485Z,26.17
2017-08-15T07:45:05.954Z,24.73
2017-08-15T07:47:35.389Z,26.27
2017-08-15T07:50:04.888Z,23.20
2017-08-15T07:52:34.333Z,21.57
2017-08-15T07:55:03.840Z,21.97
2017-08-15T07:57:33.289Z,18.57
2017-08-15T08:00:02.783Z,21.90
2017-08-15T08:02:32.064Z,24.10
2017-08-15T08:05:01.577Z,28.47
2017-08-15T08:07:31.078Z,22.57
2017-08-15T08:10:00.331Z,27.63
2017-08-15T08:12:29.796Z,27.37
2017-08-15T08:14:59.248Z,24.60
2017-08-15T08:17:28.709Z,23.97
2017-08-15T08:19:58.166Z,17.10
2017-08-15T08:22:27.629Z,13.70
2017-08-15T08:24:57.179Z,13.03
2017-08-15T08:27:26.690Z,8.60
2017-08-15T08:29:56.162Z,14.47
2017-08-15T08:32:25.616Z,6.80
2017-08-15T08:34:55.064Z,6.57
2017-08-15T08:37:24.518Z,5.03
2017-08-15T08:39:53.956Z,5.07
2017-08-15T08:42:23.409Z,5.70
2017-08-15T08:44:52.837Z,6.47
2017-08-15T08:47:22.331Z,10.27
2017-08-15T08:49:51.754Z,9.07
2017-08-15T08:52:21.186Z,8.03
2017-08-15T08:54:50.643Z,9.50
2017-08-15T08:57:20.096Z,7.40
2017-08-15T08:59:49.546Z,6.00
2017-08-15T09:02:19.037Z,8.40
2017-08-15T09:04:49.160Z,6.80
2017-08-15T09:07:18.600Z,8.60
2017-08-15T09:09:48.058Z,5.50
2017-08-15T09:12:17.325Z,6.40
2017-08-15T09:14:46.770Z,10.07
2017-08-15T09:17:16.055Z,6.23
2017-08-15T09:19:45.485Z,7.57
2017-08-15T09:22:14.973Z,8.37
2017-08-15T09:24:44.426Z,6.50
2017-08-15T09:27:14.580Z,7.53
2017-08-15T09:29:46.898Z,9.20
2017-08-15T09:32:16.330Z,7.13
2017-08-15T09:34:45.582Z,12.43
2017-08-15T09:37:14.837Z,6.37
2017-08-15T09:39:44.288Z,6.83
2017-08-15T09:42:13.540Z,13.83
2017-08-15T09:44:43.013Z,6.07
2017-08-15T09:47:12.290Z,5.73
2017-08-15T09:49:41.744Z,5.73
2017-08-15T09:52:11.195Z,7.27
2017-08-15T09:54:40.625Z,6.40
2017-08-15T09:57:10.088Z,5.70
2017-08-15T09:59:39.537Z,5.57
2017-08-15T10:02:09.093Z,5.30
2017-08-15T10:04:38.621Z,6.20
2017-08-15T10:07:08.146Z,5.03
2017-08-15T10:09:37.638Z,9.20
2017-08-15T10:12:07.115Z,5.60
2017-08-15T10:14:36.599Z,6.53
2017-08-15T10:17:06.042Z,5.67
2017-08-15T10:19:35.502Z,5.33
2017-08-15T10:22:04.958Z,5.60
2017-08-15T10:24:34.223Z,5.00
2017-08-15T10:27:03.682Z,5.10
2017-08-15T10:29:33.115Z,5.30
2017-08-15T10:32:02.592Z,5.10
2017-08-15T10:34:32.029Z,7.17
2017-08-15T10:37:01.460Z,5.83
2017-08-15T10:39:30.906Z,5.50
2017-08-15T10:42:00.360Z,7.10
2017-08-15T10:44:29.807Z,5.27
2017-08-15T10:46:59.250Z,6.47
2017-08-15T10:49:28.695Z,8.73
2017-08-15T10:51:58.136Z,6.60
2017-08-15T10:54:27.382Z,5.67
2017-08-15T10:56:56.846Z,5.37
2017-08-15T10:59:26.091Z,6.93
2017-08-15T11:01:55.540Z,5.00
2017-08-15T11:04:24.976Z,9.80
2017-08-15T11:06:54.434Z,20.00
2017-08-15T11:09:23.942Z,4.87
2017-08-15T11:11:53.362Z,4.97
2017-08-15T11:14:22.821Z,4.47
2017-08-15T11:16:52.276Z,5.93
2017-08-15T11:19:21.759Z,4.77
2017-08-15T11:21:51.193Z,6.47
2017-08-15T11:24:20.669Z,4.80
2017-08-15T11:26:50.129Z,5.30
2017-08-15T11:29:19.560Z,4.80
2017-08-15T11:31:49.004Z,4.60
2017-08-15T11:34:18.457Z,7.30
2017-08-15T11:36:47.901Z,4.40
2017-08-15T11:39:17.544Z,7.13
2017-08-15T11:41:46.973Z,5.70
2017-08-15T11:44:16.417Z,4.97
2017-08-15T11:46:45.864Z,4.70
2017-08-15T11:49:15.310Z,4.20
2017-08-15T11:51:44.748Z,4.23
2017-08-15T11:54:14.205Z,4.10
2017-08-15T11:56:43.648Z,4.37
2017-08-15T11:59:13.085Z,4.00
2017-08-15T12:01:42.532Z,2.80
2017-08-15T12:04:11.990Z,2.80
2017-08-15T12:06:41.246Z,4.60
2017-08-15T12:09:10.469Z,3.97
2017-08-15T12:11:39.915Z,3.00
2017-08-15T12:14:09.373Z,2.33
2017-08-15T12:16:38.818Z,5.17
2017-08-15T12:19:08.236Z,2.90
2017-08-15T12:21:37.670Z,3.13
2017-08-15T12:24:07.145Z,2.60
2017-08-15T12:26:36.429Z,2.70
2017-08-15T12:29:05.874Z,2.63
2017-08-15T12:31:35.335Z,2.47
2017-08-15T12:34:04.758Z,3.33
2017-08-15T12:36:34.213Z,2.53
2017-08-15T12:39:03.224Z,2.60
2017-08-15T12:41:32.673Z,3.23
2017-08-15T12:44:02.113Z,3.40
2017-08-15T12:46:31.561Z,4.40
2017-08-15T12:49:00.993Z,3.37
2017-08-15T12:51:30.450Z,3.80
2017-08-15T12:53:59.901Z,3.80
2017-08-15T12:56:29.369Z,3.37
2017-08-15T12:58:58.790Z,3.43
2017-08-15T13:01:28.252Z,3.30
2017-08-15T13:03:57.696Z,3.37
2017-08-15T13:06:27.141Z,3.33
2017-08-15T13:08:56.712Z,3.47
2017-08-15T13:11:26.150Z,3.23
2017-08-15T13:13:55.612Z,3.00
2017-08-15T13:16:25.049Z,2.80
2017-08-15T13:18:54.489Z,2.40
2017-08-15T13:21:23.930Z,3.23
2017-08-15T13:23:53.202Z,3.00
2017-08-15T13:26:22.453Z,2.50
2017-08-15T13:28:51.724Z,2.73
2017-08-15T13:31:21.180Z,2.90
2017-08-15T13:33:50.445Z,2.50
2017-08-15T13:36:19.791Z,2.03
2017-08-15T13:38:49.052Z,2.50
2017-08-15T13:41:18.306Z,2.33
2017-08-15T13:43:47.770Z,2.53
2017-08-15T13:46:17.232Z,2.33
2017-08-15T13:48:46.489Z,2.53
2017-08-15T13:51:15.950Z,2.13
2017-08-15T13:53:45.419Z,3.13
2017-08-15T13:56:14.722Z,2.00
2017-08-15T13:58:43.962Z,2.27
2017-08-15T14:01:13.246Z,1.67
2017-08-15T14:03:42.492Z,2.90
2017-08-15T14:06:11.761Z,2.60
2017-08-15T14:08:41.024Z,2.20
2017-08-15T14:11:10.294Z,2.47
2017-08-15T14:13:39.540Z,2.13
2017-08-15T14:16:08.797Z,2.80
2017-08-15T14:18:38.040Z,2.40
2017-08-15T14:21:07.332Z,2.30
2017-08-15T14:23:36.568Z,1.87
2017-08-15T14:26:06.026Z,2.33
2017-08-15T14:28:35.305Z,2.13
2017-08-15T14:31:04.761Z,2.37
2017-08-15T14:33:34.205Z,2.70
2017-08-15T14:36:03.510Z,2.07
2017-08-15T14:38:32.946Z,2.60
2017-08-15T14:41:02.199Z,2.57
2017-08-15T14:43:31.680Z,2.30
2017-08-15T14:46:00.940Z,1.90
2017-08-15T14:48:30.193Z,1.87
2017-08-15T14:50:59.452Z,4.20
2017-08-15T14:53:28.769Z,2.50
2017-08-15T14:55:58.021Z,3.23
2017-08-15T14:58:27.482Z,2.03
2017-08-15T15:00:56.878Z,2.17
2017-08-15T15:03:26.219Z,1.93
2017-08-15T15:05:55.490Z,2.00
2017-08-15T15:08:24.765Z,1.93
2017-08-15T15:10:54.008Z,2.00
2017-08-15T15:13:23.269Z,2.37
2017-08-15T15:15:52.521Z,2.40
2017-08-15T15:18:21.796Z,2.23
2017-08-15T15:20:51.032Z,3.07
2017-08-15T15:23:20.332Z,3.10
2017-08-15T15:25:49.564Z,2.03
2017-08-15T15:28:19.717Z,2.40
2017-08-15T15:30:48.947Z,2.20
2017-08-15T15:33:18.381Z,2.07
2017-08-15T15:35:47.790Z,1.93
2017-08-15T15:38:17.052Z,2.60
2017-08-15T15:40:46.512Z,4.03
2017-08-15T15:43:15.753Z,2.40
2017-08-15T15:45:45.216Z,2.60
2017-08-15T15:48:14.474Z,1.97
2017-08-15T15:50:43.905Z,2.50
2017-08-15T15:53:13.364Z,2.77
2017-08-15T15:55:42.796Z,3.00
2017-08-15T15:58:12.242Z,2.20
2017-08-15T16:00:41.697Z,3.43
2017-08-15T16:03:10.949Z,2.47
2017-08-15T16:05:40.410Z,2.03
2017-08-15T16:08:09.856Z,2.33
2017-08-15T16:10:39.317Z,2.27
2017-08-15T16:13:08.749Z,2.50
2017-08-15T16:15:38.284Z,2.20
2017-08-15T16:18:07.537Z,2.27
2017-08-15T16:20:36.985Z,1.90
2017-08-15T16:23:06.437Z,2.50
2017-08-15T16:25:35.924Z,2.37
2017-08-15T16:28:05.422Z,2.07
2017-08-15T16:30:34.868Z,2.03
2017-08-15T16:33:04.306Z,2.20
2017-08-15T16:35:33.737Z,2.40
2017-08-15T16:38:03.183Z,2.50
2017-08-15T16:40:32.457Z,2.63
2017-08-15T16:43:01.720Z,2.60
2017-08-15T16:45:30.994Z,2.80
2017-08-15T16:48:00.362Z,3.20
2017-08-15T16:50:29.615Z,2.30
2017-08-15T16:52:58.897Z,2.20
2017-08-15T16:55:28.156Z,4.50
2017-08-15T16:57:57.665Z,2.40
2017-08-15T17:00:27.117Z,2.30
2017-08-15T17:02:56.376Z,2.30
2017-08-15T17:05:25.633Z,3.37
2017-08-15T17:07:55.080Z,5.50
2017-08-15T17:10:24.625Z,2.90
2017-08-15T17:12:54.062Z,2.60
2017-08-15T17:15:23.627Z,3.20
2017-08-15T17:17:53.057Z,2.57
2017-08-15T17:20:22.540Z,2.57
2017-08-15T17:22:51.987Z,4.80
2017-08-15T17:25:21.369Z,2.83
2017-08-15T17:27:50.818Z,2.60
2017-08-15T17:30:20.317Z,2.53
2017-08-15T17:32:49.758Z,2.87
2017-08-15T17:35:19.319Z,3.10
2017-08-15T17:37:48.757Z,11.07
2017-08-15T17:40:18.224Z,3.07
2017-08-15T17:42:47.728Z,4.53
2017-08-15T17:45:17.207Z,3.00
2017-08-15T17:47:46.658Z,3.07
2017-08-15T17:50:16.200Z,5.67
2017-08-15T17:52:45.660Z,3.53
2017-08-15T17:55:15.154Z,9.33
2017-08-15T17:57:44.605Z,4.23
2017-08-15T18:00:14.098Z,5.50
2017-08-15T18:02:43.367Z,6.80
2017-08-15T18:05:12.911Z,5.50
2017-08-15T18:07:42.342Z,3.83
2017-08-15T18:10:11.822Z,4.60
2017-08-15T18:12:41.270Z,6.03
2017-08-15T18:15:10.755Z,7.50
2017-08-15T18:17:40.190Z,5.20
2017-08-15T18:20:09.691Z,5.00
2017-08-15T18:22:39.262Z,7.20
2017-08-15T18:25:08.735Z,5.87
2017-08-15T18:27:38.172Z,5.20
2017-08-15T18:30:07.658Z,8.40
2017-08-15T18:32:37.089Z,3.43
2017-08-15T18:35:06.609Z,5.13
2017-08-15T18:37:36.062Z,7.77
2017-08-15T18:40:05.538Z,4.37
2017-08-15T18:42:34.978Z,4.27
2017-08-15T18:45:04.485Z,4.00
2017-08-15T18:47:33.936Z,4.63
2017-08-15T18:50:03.524Z,4.70
2017-08-15T18:52:32.955Z,6.00
2017-08-15T18:55:02.447Z,5.10
2017-08-15T18:57:31.896Z,6.93
2017-08-15T19:00:01.457Z,4.63
2017-08-15T19:02:30.774Z,5.13
2017-08-15T19:05:00.257Z,4.60
2017-08-15T19:07:29.715Z,4.80
2017-08-15T19:09:59.169Z,4.87
2017-08-15T19:12:28.675Z,5.53
2017-08-15T19:14:58.997Z,7.07
2017-08-15T19:17:28.258Z,8.93
2017-08-15T19:19:57.723Z,9.13
2017-08-15T19:22:27.184Z,8.30
2017-08-15T19:24:56.726Z,8.30
2017-08-15T19:27:26.178Z,6.53
2017-08-15T19:29:55.646Z,9.53
2017-08-15T19:32:25.080Z,5.40
2017-08-15T19:34:54.547Z,10.60
2017-08-15T19:37:24.020Z,7.10
2017-08-15T19:39:53.492Z,5.00
2017-08-15T19:42:22.944Z,8.33
2017-08-15T19:44:52.423Z,4.40
2017-08-15T19:47:21.860Z,6.57
2017-08-15T19:49:51.122Z,8.20
2017-08-15T19:52:20.581Z,8.73
2017-08-15T19:54:50.044Z,9.03
2017-08-15T19:57:19.859Z,5.83
2017-08-15T19:59:49.333Z,5.10
2017-08-15T20:02:18.783Z,5.90
2017-08-15T20:04:48.273Z,9.53
2017-08-15T20:07:17.741Z,11.37
2017-08-15T20:09:47.192Z,7.83
2017-08-15T20:12:16.634Z,9.90
2017-08-15T20:14:46.084Z,13.40
2017-08-15T20:17:15.521Z,5.20
2017-08-15T20:19:44.987Z,20.57
2017-08-15T20:22:14.436Z,8.53
2017-08-15T20:24:43.873Z,5.97
2017-08-15T20:27:13.320Z,7.90
2017-08-15T20:29:43.635Z,6.30
2017-08-15T20:32:13.069Z,7.10
2017-08-15T20:34:42.551Z,5.53
2017-08-15T20:37:12.020Z,10.97
2017-08-15T20:39:41.500Z,11.53
2017-08-15T20:42:10.987Z,7.47
2017-08-15T20:44:41.051Z,9.60
2017-08-15T20:47:10.488Z,6.60
2017-08-15T20:49:39.940Z,12.67
2017-08-15T20:52:09.403Z,7.90
2017-08-15T20:54:38.861Z,5.83
2017-08-15T20:57:08.312Z,12.60
2017-08-15T20:59:37.769Z,6.10
2017-08-15T21:02:07.202Z,28.37
2017-08-15T21:04:36.662Z,6.30
2017-08-15T21:07:06.102Z,5.23
2017-08-15T21:09:35.548Z,8.47
2017-08-15T21:12:04.992Z,7.90
2017-08-15T21:14:34.436Z,7.10
2017-08-15T21:17:03.876Z,3.97
2017-08-15T21:19:33.350Z,5.33
2017-08-15T21:22:02.795Z,4.20
2017-08-15T21:24:32.225Z,4.60
2017-08-15T21:27:01.677Z,9.03
2017-08-15T21:29:31.137Z,4.07
2017-08-15T21:32:00.583Z,8.73
2017-08-15T21:34:30.059Z,6.53
2017-08-15T21:36:59.512Z,5.60
2017-08-15T21:42:07.531Z,10.83
2017-08-15T21:44:36.967Z,6.73
2017-08-15T21:47:06.429Z,6.83
2017-08-15T21:49:35.895Z,7.13
2017-08-15T21:52:05.355Z,5.97
2017-08-15T21:54:34.817Z,6.50
2017-08-15T21:57:04.271Z,6.90
2017-08-15T21:59:33.713Z,9.70
2017-08-15T22:02:22.956Z,5.60
2017-08-15T22:04:52.411Z,6.60
2017-08-15T22:07:21.856Z,8.63
2017-08-15T22:09:51.312Z,4.90
2017-08-15T22:12:20.750Z,5.20
2017-08-15T22:14:50.208Z,14.03
2017-08-15T22:17:19.684Z,5.33
2017-08-15T22:19:49.138Z,5.80
2017-08-15T22:22:18.581Z,4.87
2017-08-15T22:24:48.026Z,7.67
2017-08-15T22:27:17.469Z,7.93
2017-08-15T22:29:46.908Z,7.13
2017-08-15T22:32:16.380Z,17.70
2017-08-15T22:34:45.842Z,14.17
2017-08-15T22:37:15.284Z,5.60
2017-08-15T22:39:44.569Z,8.57
2017-08-15T22:42:14.012Z,5.60
2017-08-15T22:44:43.457Z,5.37
2017-08-15T22:47:12.744Z,5.47
2017-08-15T22:49:42.172Z,4.87
2017-08-15T22:52:11.612Z,7.20
2017-08-15T22:54:40.872Z,8.33
2017-08-15T22:57:10.312Z,7.27
2017-08-15T22:59:39.754Z,6.70
2017-08-15T23:02:09.206Z,5.50
2017-08-15T23:04:38.652Z,6.40
2017-08-15T23:07:08.086Z,7.50
2017-08-15T23:09:37.531Z,5.93
2017-08-15T23:12:06.971Z,7.20
2017-08-15T23:14:36.416Z,8.47
2017-08-15T23:17:05.697Z,7.27
2017-08-15T23:19:35.131Z,7.57
2017-08-15T23:22:04.617Z,10.00
2017-08-15T23:24:33.876Z,5.40
2017-08-15T23:27:03.321Z,4.80
2017-08-15T23:29:32.793Z,9.07
2017-08-15T23:32:02.244Z,9.30
2017-08-15T23:34:31.691Z,9.13
2017-08-15T23:37:01.159Z,6.70
2017-08-15T23:39:30.686Z,5.53
2017-08-15T23:42:00.126Z,11.00
2017-08-15T23:44:29.577Z,6.77
2017-08-15T23:46:59.031Z,6.17
2017-08-15T23:49:28.453Z,8.90
2017-08-15T23:51:57.901Z,8.30
2017-08-15T23:54:27.360Z,5.20
2017-08-15T23:56:56.800Z,5.70
2017-08-15T23:59:26.252Z,5.00
